createdAt,value
2019-03-29T00:01:47.702Z,42.07
2019-03-29T00:04:20.094Z,37.17
2019-03-29T00:06:51.033Z,37.87
2019-03-29T00:09:22.465Z,34.10
2019-03-29T00:11:53.466Z,36.13
2019-03-29T00:14:25.590Z,35.27
2019-03-29T00:16:56.550Z,43.63
2019-03-29T00:19:27.906Z,43.70
2019-03-29T00:21:59.046Z,37.87
2019-03-29T00:24:30.375Z,39.50
2019-03-29T00:27:01.216Z,38.33
2019-03-29T00:29:32.238Z,35.97
2019-03-29T00:32:02.979Z,38.57
2019-03-29T00:34:34.453Z,47.93
2019-03-29T00:37:05.789Z,41.87
2019-03-29T00:39:36.707Z,39.10
2019-03-29T00:42:08.652Z,37.40
2019-03-29T00:44:40.770Z,45.40
2019-03-29T00:47:11.709Z,42.97
2019-03-29T00:49:42.858Z,45.30
2019-03-29T00:52:14.189Z,46.87
2019-03-29T00:54:46.981Z,41.90
2019-03-29T00:57:18.051Z,40.87
2019-03-29T00:59:49.194Z,56.73
2019-03-29T01:02:20.331Z,42.47
2019-03-29T01:04:51.795Z,58.07
2019-03-29T01:07:22.875Z,56.57
2019-03-29T01:09:54.223Z,38.70
2019-03-29T01:12:25.039Z,44.70
2019-03-29T01:14:56.104Z,57.50
2019-03-29T01:17:27.356Z,54.30
2019-03-29T01:19:58.100Z,41.97
2019-03-29T01:22:28.862Z,62.47
2019-03-29T01:24:59.891Z,46.90
2019-03-29T01:27:30.906Z,67.20
2019-03-29T01:30:01.813Z,45.97
2019-03-29T01:32:33.054Z,32.53
2019-03-29T01:35:04.934Z,36.00
2019-03-29T01:37:36.083Z,29.90
2019-03-29T01:40:09.174Z,45.87
2019-03-29T01:42:40.659Z,47.53
2019-03-29T01:45:12.169Z,44.83
2019-03-29T01:47:42.927Z,58.10
2019-03-29T01:50:14.581Z,54.90
2019-03-29T01:52:45.995Z,45.80
2019-03-29T01:55:17.440Z,74.57
2019-03-29T01:57:48.201Z,50.30
2019-03-29T02:00:34.319Z,37.60
2019-03-29T02:03:06.526Z,37.10
2019-03-29T02:05:37.212Z,40.97
2019-03-29T02:08:07.952Z,43.87
2019-03-29T02:10:38.763Z,46.30
2019-03-29T02:13:09.997Z,34.40
2019-03-29T02:15:40.711Z,30.40
2019-03-29T02:18:11.420Z,41.07
2019-03-29T02:20:42.230Z,40.37
2019-03-29T02:23:12.970Z,33.30
2019-03-29T02:25:43.879Z,32.03
2019-03-29T02:28:14.913Z,35.43
2019-03-29T02:30:45.702Z,30.57
2019-03-29T02:33:16.562Z,35.23
2019-03-29T02:35:47.395Z,37.47
2019-03-29T02:38:18.633Z,37.67
2019-03-29T02:40:50.994Z,38.80
2019-03-29T02:43:22.490Z,37.80
2019-03-29T02:45:53.408Z,40.67
2019-03-29T02:48:24.593Z,40.87
2019-03-29T02:50:55.553Z,47.33
2019-03-29T02:53:26.539Z,56.23
2019-03-29T02:55:59.174Z,53.70
2019-03-29T02:58:30.460Z,45.17
2019-03-29T03:01:02.203Z,54.00
2019-03-29T03:03:32.972Z,48.97
2019-03-29T03:06:06.559Z,43.47
2019-03-29T03:08:37.596Z,53.57
2019-03-29T03:11:09.100Z,66.43
2019-03-29T03:13:39.948Z,49.83
2019-03-29T03:16:11.215Z,54.73
2019-03-29T03:18:42.080Z,51.27
2019-03-29T03:21:13.711Z,52.27
2019-03-29T03:23:44.467Z,46.77
2019-03-29T03:26:15.495Z,44.17
2019-03-29T03:28:46.232Z,47.90
2019-03-29T03:31:16.978Z,53.33
2019-03-29T03:33:47.974Z,49.57
2019-03-29T03:36:19.252Z,52.43
2019-03-29T03:38:50.160Z,48.10
2019-03-29T03:41:20.965Z,51.37
2019-03-29T03:43:51.775Z,51.10
2019-03-29T03:46:22.776Z,51.43
2019-03-29T03:48:53.544Z,53.90
2019-03-29T03:51:24.795Z,52.97
2019-03-29T03:53:56.314Z,61.30
2019-03-29T03:56:29.739Z,53.33
2019-03-29T03:59:02.182Z,52.07
2019-03-29T04:01:33.101Z,59.00
2019-03-29T04:04:04.049Z,61.30
2019-03-29T04:06:35.374Z,56.03
2019-03-29T04:09:07.791Z,60.47
2019-03-29T04:11:38.564Z,64.40
2019-03-29T04:14:09.335Z,61.97
2019-03-29T04:16:40.875Z,65.47
2019-03-29T04:19:11.584Z,67.30
2019-03-29T04:21:42.749Z,64.27
2019-03-29T04:24:13.443Z,61.37
2019-03-29T04:26:44.251Z,64.77
2019-03-29T04:29:15.771Z,63.50
2019-03-29T04:31:46.526Z,64.80
2019-03-29T04:34:17.270Z,53.93
2019-03-29T04:36:48.155Z,59.03
2019-03-29T04:39:18.890Z,55.93
2019-03-29T04:41:49.994Z,54.23
2019-03-29T04:44:20.819Z,53.27
2019-03-29T04:46:51.820Z,58.20
2019-03-29T04:49:22.945Z,52.07
2019-03-29T04:51:53.931Z,54.07
2019-03-29T04:54:24.849Z,52.53
2019-03-29T04:56:56.136Z,57.37
2019-03-29T04:59:27.187Z,53.87
2019-03-29T05:01:58.545Z,47.50
2019-03-29T05:04:29.370Z,46.77
2019-03-29T05:07:00.137Z,50.10
2019-03-29T05:09:30.906Z,44.10
2019-03-29T05:12:02.300Z,49.40
2019-03-29T05:14:33.096Z,52.27
2019-03-29T05:17:04.046Z,55.83
2019-03-29T05:19:35.094Z,57.67
2019-03-29T05:22:05.906Z,56.97
2019-03-29T05:24:36.711Z,59.17
2019-03-29T05:27:07.427Z,49.53
2019-03-29T05:29:38.168Z,53.53
2019-03-29T05:32:09.296Z,52.73
2019-03-29T05:34:40.137Z,53.77
2019-03-29T05:37:10.847Z,57.83
2019-03-29T05:39:41.684Z,55.63
2019-03-29T05:42:12.378Z,54.13
2019-03-29T05:44:43.090Z,56.30
2019-03-29T05:47:13.986Z,54.83
2019-03-29T05:49:45.029Z,47.43
2019-03-29T05:52:16.078Z,49.37
2019-03-29T05:54:47.194Z,51.20
2019-03-29T05:57:17.933Z,53.63
2019-03-29T05:59:49.153Z,53.17
2019-03-29T06:02:19.954Z,48.73
2019-03-29T06:04:50.868Z,49.17
2019-03-29T06:07:22.116Z,47.60
2019-03-29T06:09:52.872Z,52.27
2019-03-29T06:12:23.900Z,46.77
2019-03-29T06:14:54.749Z,47.00
2019-03-29T06:17:25.572Z,49.33
2019-03-29T06:19:56.403Z,48.63
2019-03-29T06:22:27.249Z,56.27
2019-03-29T06:24:58.015Z,52.53
2019-03-29T06:27:29.199Z,51.23
2019-03-29T06:30:00.105Z,55.97
2019-03-29T06:32:31.070Z,56.93
2019-03-29T06:35:01.898Z,50.50
2019-03-29T06:37:34.756Z,54.80
2019-03-29T06:40:07.623Z,53.07
2019-03-29T06:42:38.450Z,52.10
2019-03-29T06:45:09.761Z,59.60
2019-03-29T06:47:40.843Z,58.40
2019-03-29T06:50:14.083Z,55.20
2019-03-29T06:52:44.091Z,55.00
2019-03-29T06:55:14.895Z,64.27
2019-03-29T06:57:45.891Z,53.50
2019-03-29T07:00:16.970Z,55.63
2019-03-29T07:02:48.124Z,60.57
2019-03-29T07:05:18.949Z,61.03
2019-03-29T07:07:50.103Z,57.20
2019-03-29T07:10:21.157Z,59.90
2019-03-29T07:12:52.004Z,62.80
2019-03-29T07:15:22.819Z,60.30
2019-03-29T07:17:53.862Z,58.00
2019-03-29T07:20:24.772Z,61.80
2019-03-29T07:22:55.839Z,61.70
2019-03-29T07:25:26.617Z,68.73
2019-03-29T07:27:57.330Z,65.47
2019-03-29T07:30:28.046Z,56.73
2019-03-29T07:32:58.883Z,60.67
2019-03-29T07:35:29.619Z,62.97
2019-03-29T07:38:00.814Z,62.03
2019-03-29T07:40:31.570Z,60.33
2019-03-29T07:43:02.583Z,57.37
2019-03-29T07:45:33.717Z,58.27
2019-03-29T07:48:04.452Z,53.67
2019-03-29T07:50:35.258Z,51.77
2019-03-29T07:53:06.501Z,56.03
2019-03-29T07:55:37.654Z,51.93
2019-03-29T07:58:08.578Z,55.97
2019-03-29T08:00:39.437Z,57.33
2019-03-29T08:03:10.181Z,52.83
2019-03-29T08:05:41.447Z,55.47
2019-03-29T08:08:23.301Z,54.07
2019-03-29T08:10:44.622Z,53.17
2019-03-29T08:13:16.248Z,54.30
2019-03-29T08:15:47.376Z,53.53
2019-03-29T08:18:18.320Z,51.40
2019-03-29T08:20:49.049Z,46.97
2019-03-29T08:23:22.128Z,47.87
2019-03-29T08:25:52.940Z,45.47
2019-03-29T08:28:23.734Z,44.77
2019-03-29T08:30:54.927Z,45.07
2019-03-29T08:33:25.697Z,42.00
2019-03-29T08:35:56.749Z,44.37
2019-03-29T08:38:27.545Z,37.53
2019-03-29T08:40:58.254Z,39.40
2019-03-29T08:43:29.615Z,43.10
2019-03-29T08:46:00.757Z,42.50
2019-03-29T08:48:32.113Z,37.17
2019-03-29T08:51:02.861Z,38.93
2019-03-29T08:53:33.735Z,35.07
2019-03-29T08:56:05.029Z,39.67
2019-03-29T08:58:35.899Z,37.40
2019-03-29T09:01:12.835Z,37.33
2019-03-29T09:03:44.164Z,34.40
2019-03-29T09:06:15.000Z,36.00
2019-03-29T09:08:46.334Z,33.38
2019-03-29T09:11:17.350Z,38.53
2019-03-29T09:13:48.076Z,37.43
2019-03-29T09:16:18.846Z,38.53
2019-03-29T09:18:53.646Z,32.17
2019-03-29T09:21:24.683Z,35.77
2019-03-29T09:23:55.738Z,32.80
2019-03-29T09:26:26.840Z,34.63
2019-03-29T09:28:57.951Z,35.23
2019-03-29T09:31:28.840Z,34.30
2019-03-29T09:34:00.322Z,34.90
2019-03-29T09:36:33.662Z,33.83
2019-03-29T09:39:06.737Z,29.23
2019-03-29T09:41:37.846Z,30.93
2019-03-29T09:44:09.119Z,30.43
2019-03-29T09:46:40.317Z,29.53
2019-03-29T09:49:11.573Z,28.40
2019-03-29T09:51:42.327Z,25.73
2019-03-29T09:54:13.775Z,24.40
2019-03-29T09:56:48.111Z,24.77
2019-03-29T09:59:17.664Z,21.77
2019-03-29T10:01:48.479Z,22.47
2019-03-29T10:04:19.403Z,23.57
2019-03-29T10:06:50.194Z,25.80
2019-03-29T10:09:21.143Z,19.60
2019-03-29T10:11:52.320Z,19.87
2019-03-29T10:14:23.521Z,17.23
2019-03-29T10:16:54.515Z,20.20
2019-03-29T10:19:25.369Z,19.00
2019-03-29T10:21:56.612Z,18.60
2019-03-29T10:24:27.701Z,17.80
2019-03-29T10:26:59.134Z,33.07
2019-03-29T10:29:30.093Z,17.63
2019-03-29T10:32:00.944Z,15.33
2019-03-29T10:34:32.267Z,16.37
2019-03-29T10:37:03.509Z,14.27
2019-03-29T10:39:35.776Z,18.70
2019-03-29T10:42:06.890Z,14.00
2019-03-29T10:44:37.721Z,12.50
2019-03-29T10:47:08.527Z,11.33
2019-03-29T10:49:39.279Z,14.30
2019-03-29T10:52:10.222Z,15.07
2019-03-29T10:54:41.070Z,11.50
2019-03-29T10:57:11.853Z,10.40
2019-03-29T10:59:42.750Z,9.67
2019-03-29T11:02:13.672Z,7.07
2019-03-29T11:04:44.492Z,8.87
2019-03-29T11:07:15.724Z,9.20
2019-03-29T11:09:46.821Z,10.93
2019-03-29T11:12:17.687Z,7.00
2019-03-29T11:14:48.564Z,7.53
2019-03-29T11:17:19.297Z,6.07
2019-03-29T11:19:50.505Z,9.10
2019-03-29T11:22:21.215Z,6.93
2019-03-29T11:24:52.097Z,7.93
2019-03-29T11:27:22.829Z,6.90
2019-03-29T11:29:53.693Z,5.93
2019-03-29T11:32:24.532Z,6.30
2019-03-29T11:34:55.562Z,7.00
2019-03-29T11:37:26.314Z,7.03
2019-03-29T11:39:57.434Z,9.50
2019-03-29T11:42:28.352Z,6.67
2019-03-29T11:44:59.249Z,7.60
2019-03-29T11:47:30.105Z,6.17
2019-03-29T11:50:00.970Z,8.67
2019-03-29T11:52:33.825Z,6.67
2019-03-29T11:55:04.480Z,8.07
2019-03-29T11:57:35.324Z,6.43
2019-03-29T12:00:07.151Z,10.83
2019-03-29T12:02:38.039Z,8.17
2019-03-29T12:05:09.140Z,8.83
2019-03-29T12:07:39.878Z,10.33
2019-03-29T12:10:10.978Z,7.27
2019-03-29T12:12:41.776Z,10.33
2019-03-29T12:15:13.706Z,8.37
2019-03-29T12:17:44.746Z,12.27
2019-03-29T12:20:15.713Z,9.50
2019-03-29T12:22:46.611Z,6.53
2019-03-29T12:25:17.579Z,11.63
2019-03-29T12:27:48.301Z,6.60
2019-03-29T12:30:31.365Z,6.13
2019-03-29T12:32:53.019Z,11.20
2019-03-29T12:35:24.097Z,9.13
2019-03-29T12:37:55.186Z,6.93
2019-03-29T12:40:26.078Z,5.60
2019-03-29T12:42:57.015Z,7.87
2019-03-29T12:45:28.074Z,7.30
2019-03-29T12:47:58.876Z,6.43
2019-03-29T12:50:30.710Z,6.67
2019-03-29T12:53:01.524Z,6.83
2019-03-29T12:55:32.600Z,14.80
2019-03-29T12:58:03.671Z,7.83
2019-03-29T13:00:34.784Z,8.27
2019-03-29T13:03:06.180Z,10.50
2019-03-29T13:05:37.007Z,7.93
2019-03-29T13:08:08.229Z,7.30
2019-03-29T13:10:42.272Z,5.33
2019-03-29T13:13:13.412Z,6.03
2019-03-29T13:15:44.442Z,7.47
2019-03-29T13:18:15.736Z,7.93
2019-03-29T13:20:46.729Z,17.87
2019-03-29T13:23:17.462Z,11.50
2019-03-29T13:25:48.628Z,10.90
2019-03-29T13:28:19.503Z,12.67
2019-03-29T13:30:50.593Z,7.73
2019-03-29T13:33:21.327Z,10.40
2019-03-29T13:35:52.967Z,8.27
2019-03-29T13:38:23.897Z,8.83
2019-03-29T13:40:54.688Z,6.80
2019-03-29T13:43:27.906Z,9.17
2019-03-29T13:45:59.042Z,8.37
2019-03-29T13:48:30.159Z,7.73
2019-03-29T13:51:00.928Z,7.47
2019-03-29T13:53:31.874Z,7.80
2019-03-29T13:56:03.060Z,7.10
2019-03-29T13:58:33.882Z,9.00
2019-03-29T14:01:05.061Z,9.00
2019-03-29T14:03:38.003Z,8.33
2019-03-29T14:06:09.846Z,8.10
2019-03-29T14:08:40.642Z,8.03
2019-03-29T14:11:11.431Z,8.83
2019-03-29T14:13:42.144Z,7.60
2019-03-29T14:16:12.953Z,11.17
2019-03-29T14:18:44.174Z,7.90
2019-03-29T14:21:14.983Z,7.60
2019-03-29T14:23:45.718Z,8.47
2019-03-29T14:26:16.453Z,7.63
2019-03-29T14:28:47.512Z,8.33
2019-03-29T14:31:18.379Z,7.93
2019-03-29T14:33:49.924Z,8.37
2019-03-29T14:36:20.797Z,10.67
2019-03-29T14:38:51.507Z,10.70
2019-03-29T14:41:22.432Z,9.03
2019-03-29T14:43:53.464Z,8.93
2019-03-29T14:46:24.184Z,9.33
2019-03-29T14:48:54.999Z,9.73
2019-03-29T14:51:26.270Z,10.37
2019-03-29T14:53:57.772Z,21.27
2019-03-29T14:56:28.519Z,10.47
2019-03-29T14:58:59.355Z,9.60
2019-03-29T15:01:31.180Z,9.77
2019-03-29T15:04:12.449Z,11.10
2019-03-29T15:06:43.405Z,9.90
2019-03-29T15:09:14.961Z,8.83
2019-03-29T15:11:45.785Z,8.87
2019-03-29T15:14:16.534Z,11.77
2019-03-29T15:16:47.986Z,7.67
2019-03-29T15:19:22.205Z,10.60
2019-03-29T15:21:55.774Z,9.80
2019-03-29T15:24:28.141Z,9.20
2019-03-29T15:26:59.461Z,11.87
2019-03-29T15:29:30.346Z,10.80
2019-03-29T15:32:02.776Z,8.90
2019-03-29T15:34:38.725Z,8.67
2019-03-29T15:37:11.968Z,10.53
2019-03-29T15:39:43.465Z,11.73
2019-03-29T15:42:15.221Z,10.03
2019-03-29T15:44:46.093Z,10.53
2019-03-29T15:47:17.402Z,10.67
2019-03-29T15:49:55.935Z,11.43
2019-03-29T15:52:22.416Z,8.27
2019-03-29T15:54:53.150Z,9.10
2019-03-29T15:57:25.015Z,7.90
2019-03-29T15:59:57.321Z,6.83
2019-03-29T16:02:29.558Z,7.00
2019-03-29T16:05:00.715Z,7.73
2019-03-29T16:07:34.966Z,10.90
2019-03-29T16:10:06.553Z,8.83
2019-03-29T16:12:37.282Z,8.50
2019-03-29T16:15:08.858Z,8.17
2019-03-29T16:17:39.720Z,7.20
2019-03-29T16:20:10.679Z,8.77
2019-03-29T16:22:42.539Z,9.67
2019-03-29T16:25:13.570Z,11.07
2019-03-29T16:27:44.425Z,10.80
2019-03-29T16:30:15.910Z,8.60
2019-03-29T16:32:46.607Z,8.47
2019-03-29T16:35:17.350Z,8.60
2019-03-29T16:37:57.050Z,7.60
2019-03-29T16:40:20.575Z,12.30
2019-03-29T16:42:51.430Z,9.07
2019-03-29T16:45:22.231Z,8.07
2019-03-29T16:47:53.831Z,8.17
2019-03-29T16:50:24.635Z,8.07
2019-03-29T16:52:55.343Z,8.07
2019-03-29T16:55:29.797Z,7.87
2019-03-29T16:58:00.613Z,13.97
2019-03-29T17:00:31.374Z,10.17
2019-03-29T17:03:02.568Z,9.03
2019-03-29T17:05:33.370Z,9.67
2019-03-29T17:08:05.409Z,8.10
2019-03-29T17:10:36.798Z,10.63
2019-03-29T17:13:07.578Z,8.73
2019-03-29T17:15:38.333Z,11.33
2019-03-29T17:18:09.031Z,11.73
2019-03-29T17:20:39.978Z,9.90
2019-03-29T17:23:11.001Z,9.33
2019-03-29T17:25:41.900Z,9.73
2019-03-29T17:28:16.909Z,10.25
2019-03-29T17:30:56.875Z,9.77
2019-03-29T17:33:27.635Z,10.30
2019-03-29T17:35:58.693Z,10.80
2019-03-29T17:38:29.946Z,11.10
2019-03-29T17:41:00.754Z,11.93
2019-03-29T17:43:31.612Z,28.43
2019-03-29T17:46:15.599Z,14.70
2019-03-29T17:48:35.565Z,12.10
2019-03-29T17:51:06.907Z,11.10
2019-03-29T17:53:37.607Z,15.33
2019-03-29T17:56:09.239Z,12.90
2019-03-29T17:58:40.048Z,12.87
2019-03-29T18:01:10.763Z,12.80
2019-03-29T18:03:41.581Z,12.03
2019-03-29T18:06:13.264Z,11.90
2019-03-29T18:08:43.973Z,12.73
2019-03-29T18:11:14.772Z,13.37
2019-03-29T18:13:45.768Z,12.50
2019-03-29T18:16:30.002Z,12.80
2019-03-29T18:18:49.468Z,13.97
2019-03-29T18:21:20.389Z,13.20
2019-03-29T18:23:51.634Z,13.83
2019-03-29T18:26:22.504Z,18.90
2019-03-29T18:28:53.481Z,19.37
2019-03-29T18:31:25.318Z,19.97
2019-03-29T18:33:56.553Z,13.27
2019-03-29T18:36:28.071Z,13.27
2019-03-29T18:38:58.881Z,11.63
2019-03-29T18:41:30.827Z,15.93
2019-03-29T18:44:01.663Z,22.03
2019-03-29T18:46:43.995Z,15.60
2019-03-29T18:49:04.996Z,13.87
2019-03-29T18:51:35.799Z,15.20
2019-03-29T18:54:08.192Z,39.50
2019-03-29T18:56:38.896Z,29.87
2019-03-29T18:59:10.079Z,19.10
2019-03-29T19:01:40.780Z,12.30
2019-03-29T19:04:11.509Z,13.10
2019-03-29T19:06:43.045Z,12.63
2019-03-29T19:09:13.869Z,16.33
2019-03-29T19:11:44.637Z,14.90
2019-03-29T19:14:15.557Z,15.27
2019-03-29T19:16:58.276Z,14.90
2019-03-29T19:19:18.738Z,15.27
2019-03-29T19:21:49.449Z,14.03
2019-03-29T19:24:20.190Z,22.70
2019-03-29T19:26:50.884Z,33.20
2019-03-29T19:29:22.054Z,22.40
2019-03-29T19:31:56.025Z,19.23
2019-03-29T19:34:25.448Z,16.97
2019-03-29T19:36:56.374Z,19.87
2019-03-29T19:39:27.111Z,15.97
2019-03-29T19:41:58.747Z,15.70
2019-03-29T19:44:29.808Z,25.77
2019-03-29T19:47:12.720Z,24.30
2019-03-29T19:49:33.398Z,20.13
2019-03-29T19:52:04.201Z,28.30
2019-03-29T19:54:35.262Z,17.30
2019-03-29T19:57:06.257Z,17.10
2019-03-29T19:59:37.075Z,48.30
2019-03-29T20:02:08.220Z,39.17
2019-03-29T20:04:39.008Z,20.40
2019-03-29T20:07:10.247Z,15.60
2019-03-29T20:09:42.189Z,14.80
2019-03-29T20:12:13.206Z,15.83
2019-03-29T20:14:43.963Z,18.30
2019-03-29T20:17:26.968Z,18.90
2019-03-29T20:19:47.345Z,23.10
2019-03-29T20:22:18.228Z,19.67
2019-03-29T20:24:48.969Z,18.90
2019-03-29T20:27:19.842Z,71.63
2019-03-29T20:29:50.578Z,30.53
2019-03-29T20:32:22.288Z,20.23
2019-03-29T20:34:53.438Z,17.60
2019-03-29T20:37:24.145Z,14.23
2019-03-29T20:39:55.253Z,15.13
2019-03-29T20:42:25.943Z,14.90
2019-03-29T20:44:58.194Z,16.13
2019-03-29T20:47:41.441Z,17.70
2019-03-29T20:50:02.311Z,32.17
2019-03-29T20:52:33.363Z,40.50
2019-03-29T20:55:10.059Z,34.17
2019-03-29T20:57:40.932Z,86.77
2019-03-29T21:00:14.715Z,29.83
2019-03-29T21:02:46.310Z,18.47
2019-03-29T21:05:17.223Z,17.43
2019-03-29T21:07:49.208Z,15.80
2019-03-29T21:10:20.270Z,16.87
2019-03-29T21:12:51.490Z,19.70
2019-03-29T21:15:22.828Z,18.97
2019-03-29T21:17:57.123Z,24.07
2019-03-29T21:20:28.452Z,16.90
2019-03-29T21:23:00.157Z,17.70
2019-03-29T21:25:30.919Z,15.43
2019-03-29T21:28:01.765Z,18.73
2019-03-29T21:30:33.803Z,14.17
2019-03-29T21:33:05.083Z,21.87
2019-03-29T21:35:36.017Z,16.90
2019-03-29T21:38:09.514Z,16.00
2019-03-29T21:40:41.931Z,14.43
2019-03-29T21:43:13.987Z,12.63
2019-03-29T21:45:50.437Z,13.83
2019-03-29T21:48:29.344Z,15.93
2019-03-29T21:50:54.122Z,11.23
2019-03-29T21:53:25.343Z,14.10
2019-03-29T21:55:56.081Z,16.43
2019-03-29T21:58:27.179Z,14.03
2019-03-29T22:00:58.063Z,20.60
2019-03-29T22:03:28.763Z,17.03
2019-03-29T22:05:59.483Z,11.83
2019-03-29T22:08:31.563Z,11.60
2019-03-29T22:11:02.792Z,12.13
2019-03-29T22:13:33.596Z,10.40
2019-03-29T22:16:05.074Z,10.83
2019-03-29T22:18:38.205Z,17.13
2019-03-29T22:21:09.162Z,12.37
2019-03-29T22:23:39.972Z,11.70
2019-03-29T22:26:10.774Z,10.43
2019-03-29T22:28:41.697Z,11.33
2019-03-29T22:31:12.418Z,10.37
2019-03-29T22:33:43.154Z,11.70
2019-03-29T22:36:14.176Z,10.97
2019-03-29T22:38:45.319Z,18.13
2019-03-29T22:41:16.461Z,12.43
2019-03-29T22:43:48.086Z,10.20
2019-03-29T22:46:18.978Z,11.80
2019-03-29T22:48:52.933Z,19.33
2019-03-29T22:51:22.225Z,16.53
2019-03-29T22:53:53.715Z,30.90
2019-03-29T22:56:24.467Z,28.90
2019-03-29T22:58:55.802Z,45.63
2019-03-29T23:01:27.334Z,29.73
2019-03-29T23:03:58.506Z,31.00
2019-03-29T23:06:29.205Z,22.43
2019-03-29T23:09:00.177Z,14.00
2019-03-29T23:11:31.162Z,18.53
2019-03-29T23:14:02.122Z,28.70
2019-03-29T23:16:32.843Z,25.63
2019-03-29T23:19:06.842Z,25.03
2019-03-29T23:21:36.388Z,14.17
2019-03-29T23:24:07.152Z,14.00
2019-03-29T23:26:38.201Z,28.80
2019-03-29T23:29:09.000Z,16.63
2019-03-29T23:31:39.728Z,25.50
2019-03-29T23:34:10.516Z,13.80
2019-03-29T23:36:41.316Z,18.90
2019-03-29T23:39:12.044Z,23.33
2019-03-29T23:41:42.830Z,30.47
2019-03-29T23:44:13.606Z,31.30
2019-03-29T23:46:44.307Z,12.53
2019-03-29T23:49:21.350Z,11.63
2019-03-29T23:51:48.408Z,16.23
2019-03-29T23:54:20.052Z,24.87
2019-03-29T23:56:51.337Z,15.40
2019-03-29T23:59:22.046Z,26.03
